Toyofujimaru No.2 — 7JDI — position and weather

sailwx.info

Track history (hours):
 
Tides and Currents Weather Stations Pressure Air Temp Water Temp Dewpoint Dewpoint Depression Visibility Wind Speed Wind Dir Waves Ship Positions

Toyofujimaru No.2

Last reported at 2016-Jun-12 18:33 UTC. Time now 2016-Jun-28 09:48 UTC.
Position N 22°07' E 114°16'.
Warning: this ship's position is 15 days out of date.

Length 165 m; draft 6.4 m.

Type: Cargo ship. MMSI: 432667000.

Date/timePositionNaut miles runAvg speedWind from/ knotsBaromVisibWave heightAir tempDewpointWater temp
2016-Jun-12 18:33N 22°07' E 114°16'1211.0
2016-Jun-12 17:30N 22°15' E 114°07'5 5.4
2016-Jun-12 16:33N 22°20' E 114°07'0 0.0
2016-Jun-12 15:32N 22°20' E 114°07'0 0.0
2016-Jun-12 14:32N 22°20' E 114°07'0 0.0
2016-Jun-12 13:32N 22°20' E 114°07'0 0.0
2016-Jun-12 12:32N 22°20' E 114°07'0 0.0
2016-Jun-12 11:32N 22°20' E 114°07'0 0.3
2016-Jun-12 10:33N 22°20' E 114°07'12 9.7
2016-Jun-12 09:18N 22°09' E 114°14'1215.9
2016-Jun-12 08:33N 22°08' E 114°27'21017.2
2016-Jun-11 20:18N 23°29' E 117°57'  
2016-Jun-06 12:03N 33°51' E 135°01'817.0
2016-Jun-06 11:33N 33°59' E 134°57'12 8.4
2016-Jun-06 10:10N 34°10' E 134°54'0 0.8
2016-Jun-06 09:33N 34°10' E 134°55'5 5.5
2016-Jun-06 08:33N 34°15' E 134°58'1615.9
2016-Jun-06 07:33N 34°28' E 135°09'1312.6
2016-Jun-06 06:34N 34°31' E 135°23'0 0.1
2016-Jun-06 05:32N 34°31' E 135°23'0 0.0
2016-Jun-06 04:32N 34°31' E 135°23'0 0.0
2016-Jun-06 03:32N 34°31' E 135°23'0 0.0
2016-Jun-06 02:26N 34°31' E 135°23'0 0.0
2016-Jun-06 01:26N 34°31' E 135°23'0 0.0
2016-Jun-06 00:32N 34°31' E 135°23'0 0.0
2016-Jun-05 23:08N 34°31' E 135°23'0 0.0
2016-Jun-05 22:32N 34°31' E 135°23'0 0.0
2016-Jun-05 20:32N 34°31' E 135°23'0 0.0
2016-Jun-05 18:26N 34°31' E 135°23'0 0.0
2016-Jun-05 17:32N 34°31' E 135°23'0 0.0
2016-Jun-05 15:32N 34°31' E 135°23'0 0.0
2016-Jun-05 14:32N 34°31' E 135°23'0 0.0
2016-Jun-05 13:32N 34°31' E 135°23'0 0.0
2016-Jun-05 12:32N 34°31' E 135°23'0 0.0
2016-Jun-05 11:32N 34°31' E 135°23'0 0.0
2016-Jun-05 10:32N 34°31' E 135°23'0 0.0
2016-Jun-05 09:26N 34°31' E 135°23'0 0.0
2016-Jun-05 08:26N 34°31' E 135°23'0 0.0
2016-Jun-05 07:26N 34°31' E 135°23'0 0.0
2016-Jun-05 06:32N 34°31' E 135°23'0 0.0
2016-Jun-05 05:26N 34°31' E 135°23'0 0.0
2016-Jun-05 04:20N 34°31' E 135°23'0 0.0
2016-Jun-05 03:32N 34°31' E 135°23'0 0.0
2016-Jun-05 02:32N 34°31' E 135°23'0 0.0
2016-Jun-05 00:32N 34°31' E 135°23'0 0.0
2016-Jun-04 23:26N 34°31' E 135°23'0 0.0
2016-Jun-04 19:32N 34°31' E 135°23'0 0.0
2016-Jun-04 18:32N 34°31' E 135°23'0 0.0
2016-Jun-04 17:32N 34°31' E 135°23'0 0.0
2016-Jun-04 16:26N 34°31' E 135°23'0 0.0
2016-Jun-04 14:32N 34°31' E 135°23'0 0.0
2016-Jun-04 13:32N 34°31' E 135°23'0 0.0
2016-Jun-04 12:32N 34°31' E 135°23'0 0.0
2016-Jun-04 11:32N 34°31' E 135°23'0 0.0
2016-Jun-04 10:26N 34°31' E 135°23'0 0.0
2016-Jun-04 09:14N 34°31' E 135°23'0 0.0
2016-Jun-04 08:32N 34°31' E 135°23'0 0.0
2016-Jun-04 07:26N 34°31' E 135°23'0 0.0
2016-Jun-04 06:26N 34°31' E 135°23'0 0.0
2016-Jun-04 05:32N 34°31' E 135°23'0 0.0
2016-Jun-04 04:26N 34°31' E 135°23'0 0.0
2016-Jun-04 03:32N 34°31' E 135°23'0 0.0
2016-Jun-04 02:32N 34°31' E 135°23'0 0.0
2016-Jun-04 01:32N 34°31' E 135°23'1010.1
2016-Jun-04 00:33N 34°29' E 135°12'1717.2
2016-Jun-03 23:33N 34°15' E 134°59'1110.7
2016-Jun-03 22:33N 34°05' E 134°58'  
Track history (hours):
 
Tides and Currents Weather Stations Pressure Air Temp Water Temp Dewpoint Dewpoint Depression Visibility Wind Speed Wind Dir Waves Ship Positions

Toyofujimaru No.2

Last reported at 2016-Jun-12 18:33 UTC. Time now 2016-Jun-28 09:48 UTC.
Position N 22°07' E 114°16'.
Warning: this ship's position is 15 days out of date.

Length 165 m; draft 6.4 m.

Type: Cargo ship. MMSI: 432667000.

Date/timePositionNaut miles runAvg speedWind from/ knotsBaromVisibWave heightAir tempDewpointWater temp
2016-Jun-12 18:33N 22°07' E 114°16'1211.0
2016-Jun-12 17:30N 22°15' E 114°07'5 5.4
2016-Jun-12 16:33N 22°20' E 114°07'0 0.0
2016-Jun-12 15:32N 22°20' E 114°07'0 0.0
2016-Jun-12 14:32N 22°20' E 114°07'0 0.0
2016-Jun-12 13:32N 22°20' E 114°07'0 0.0
2016-Jun-12 12:32N 22°20' E 114°07'0 0.0
2016-Jun-12 11:32N 22°20' E 114°07'0 0.3
2016-Jun-12 10:33N 22°20' E 114°07'12 9.7
2016-Jun-12 09:18N 22°09' E 114°14'1215.9
2016-Jun-12 08:33N 22°08' E 114°27'21017.2
2016-Jun-11 20:18N 23°29' E 117°57'  
2016-Jun-06 12:03N 33°51' E 135°01'817.0
2016-Jun-06 11:33N 33°59' E 134°57'12 8.4
2016-Jun-06 10:10N 34°10' E 134°54'0 0.8
2016-Jun-06 09:33N 34°10' E 134°55'5 5.5
2016-Jun-06 08:33N 34°15' E 134°58'1615.9
2016-Jun-06 07:33N 34°28' E 135°09'1312.6
2016-Jun-06 06:34N 34°31' E 135°23'0 0.1
2016-Jun-06 05:32N 34°31' E 135°23'0 0.0
2016-Jun-06 04:32N 34°31' E 135°23'0 0.0
2016-Jun-06 03:32N 34°31' E 135°23'0 0.0
2016-Jun-06 02:26N 34°31' E 135°23'0 0.0
2016-Jun-06 01:26N 34°31' E 135°23'0 0.0
2016-Jun-06 00:32N 34°31' E 135°23'0 0.0
2016-Jun-05 23:08N 34°31' E 135°23'0 0.0
2016-Jun-05 22:32N 34°31' E 135°23'0 0.0
2016-Jun-05 20:32N 34°31' E 135°23'0 0.0
2016-Jun-05 18:26N 34°31' E 135°23'0 0.0
2016-Jun-05 17:32N 34°31' E 135°23'0 0.0
2016-Jun-05 15:32N 34°31' E 135°23'0 0.0
2016-Jun-05 14:32N 34°31' E 135°23'0 0.0
2016-Jun-05 13:32N 34°31' E 135°23'0 0.0
2016-Jun-05 12:32N 34°31' E 135°23'0 0.0
2016-Jun-05 11:32N 34°31' E 135°23'0 0.0
2016-Jun-05 10:32N 34°31' E 135°23'0 0.0
2016-Jun-05 09:26N 34°31' E 135°23'0 0.0
2016-Jun-05 08:26N 34°31' E 135°23'0 0.0
2016-Jun-05 07:26N 34°31' E 135°23'0 0.0
2016-Jun-05 06:32N 34°31' E 135°23'0 0.0
2016-Jun-05 05:26N 34°31' E 135°23'0 0.0
2016-Jun-05 04:20N 34°31' E 135°23'0 0.0
2016-Jun-05 03:32N 34°31' E 135°23'0 0.0
2016-Jun-05 02:32N 34°31' E 135°23'0 0.0
2016-Jun-05 00:32N 34°31' E 135°23'0 0.0
2016-Jun-04 23:26N 34°31' E 135°23'0 0.0
2016-Jun-04 19:32N 34°31' E 135°23'0 0.0
2016-Jun-04 18:32N 34°31' E 135°23'0 0.0
2016-Jun-04 17:32N 34°31' E 135°23'0 0.0
2016-Jun-04 16:26N 34°31' E 135°23'0 0.0
2016-Jun-04 14:32N 34°31' E 135°23'0 0.0
2016-Jun-04 13:32N 34°31' E 135°23'0 0.0
2016-Jun-04 12:32N 34°31' E 135°23'0 0.0
2016-Jun-04 11:32N 34°31' E 135°23'0 0.0
2016-Jun-04 10:26N 34°31' E 135°23'0 0.0
2016-Jun-04 09:14N 34°31' E 135°23'0 0.0
2016-Jun-04 08:32N 34°31' E 135°23'0 0.0
2016-Jun-04 07:26N 34°31' E 135°23'0 0.0
2016-Jun-04 06:26N 34°31' E 135°23'0 0.0
2016-Jun-04 05:32N 34°31' E 135°23'0 0.0
2016-Jun-04 04:26N 34°31' E 135°23'0 0.0
2016-Jun-04 03:32N 34°31' E 135°23'0 0.0
2016-Jun-04 02:32N 34°31' E 135°23'0 0.0
2016-Jun-04 01:32N 34°31' E 135°23'1010.1
2016-Jun-04 00:33N 34°29' E 135°12'1717.2
2016-Jun-03 23:33N 34°15' E 134°59'1110.7
2016-Jun-03 22:33N 34°05' E 134°58'  

Dump ship's entire track history